Time;durP1;ratioP1;P1;durP2;ratioP2;P2;SDS_P1;SDS_P2;PMS_P1;PMS_P2;Temp;Humidity;BMP_temperature;BMP_pressure;BME280_temperature;BME280_humidity;BME280_pressure;Samples;Min_cycle;Max_cycle;Signal;HPM_P1;HPM_P2
2022/06/02 00:00:14;;;;;;;1.08;0.50;;;20.60;48.60;19.80;101466.00;;;;5054820;28;20041;-71
2022/06/02 00:03:18;;;;;;;0.60;0.60;;;20.60;48.70;19.80;101465.00;;;;5056025;28;20044;-71
2022/06/02 00:06:25;;;;;;;0.93;0.65;;;20.60;48.70;19.80;101470.00;;;;5058211;28;20047;-71
2022/06/02 00:09:25;;;;;;;1.00;0.60;;;20.60;48.70;19.80;101470.00;;;;5043123;28;20048;-71
2022/06/02 00:12:33;;;;;;;0.50;0.50;;;20.60;48.60;19.80;101475.00;;;;5038940;28;20041;-71
2022/06/02 00:15:26;;;;;;;0.40;0.40;;;20.60;48.60;19.80;101474.00;;;;5063357;28;20048;-71
2022/06/02 00:18:32;;;;;;;0.75;0.70;;;20.60;48.60;19.80;101480.00;;;;5052886;28;20492;-71
2022/06/02 00:21:33;;;;;;;0.77;0.77;;;20.60;48.60;19.80;101473.00;;;;5053320;28;20052;-71
2022/06/02 00:24:56;;;;;;;0.80;0.40;;;20.60;48.50;19.80;101479.00;;;;5042605;28;20218;-71
2022/06/02 00:28:11;;;;;;;0.50;0.50;;;20.60;48.50;19.80;101485.00;;;;5055913;28;20099;-71
2022/06/02 00:31:03;;;;;;;0.50;0.50;;;20.60;48.50;19.80;101491.00;;;;5036780;28;20033;-71
2022/06/02 00:34:19;;;;;;;0.70;0.50;;;20.60;48.50;19.70;101489.00;;;;5053499;28;20482;-71
2022/06/02 00:37:46;;;;;;;0.47;0.47;;;20.50;48.40;19.70;101492.00;;;;5044098;28;20102;-71
2022/06/02 00:40:34;;;;;;;0.45;0.43;;;20.50;48.40;19.70;101488.00;;;;5044135;28;20503;-71
2022/06/02 00:43:29;;;;;;;0.70;0.50;;;20.50;48.50;19.70;101502.00;;;;5041292;28;20465;-71
2022/06/02 00:46:18;;;;;;;2.03;0.50;;;20.50;48.40;19.70;101496.00;;;;5052654;28;20042;-71
2022/06/02 00:49:35;;;;;;;0.68;0.68;;;20.50;48.40;19.70;101508.00;;;;5037658;28;20131;-71
2022/06/02 00:52:47;;;;;;;0.30;0.30;;;20.50;48.40;19.70;101505.00;;;;5032383;28;20041;-71
2022/06/02 00:59:32;;;;;;;0.30;0.30;;;20.50;48.30;19.70;101499.00;;;;5047739;28;20458;-71
2022/06/02 01:02:18;;;;;;;0.80;0.30;;;20.50;48.30;19.70;101515.00;;;;5039884;28;20045;-71
2022/06/02 01:05:04;;;;;;;0.40;0.40;;;20.50;48.30;19.70;101512.00;;;;5027629;28;20036;-71
2022/06/02 01:08:02;;;;;;;0.40;0.40;;;20.50;48.30;19.70;101502.00;;;;5028868;28;20072;-71
2022/06/02 01:11:06;;;;;;;0.70;0.60;;;20.50;48.30;19.70;101508.00;;;;5047822;28;20123;-71
2022/06/02 01:14:24;;;;;;;0.30;0.30;;;20.50;48.30;19.70;101510.00;;;;5049341;28;20549;-71
2022/06/02 01:17:54;;;;;;;0.50;0.30;;;20.50;48.20;19.70;101516.00;;;;5030485;28;20076;-71
2022/06/02 01:21:03;;;;;;;0.85;0.30;;;20.50;48.20;19.60;101515.00;;;;5037868;28;20549;-71
2022/06/02 01:24:21;;;;;;;0.50;0.40;;;20.50;48.10;19.60;101509.00;;;;5039218;28;20126;-71
2022/06/02 01:27:37;;;;;;;0.30;0.30;;;20.50;48.10;19.60;101514.00;;;;5041479;28;20519;-71
2022/06/02 01:30:57;;;;;;;0.30;0.30;;;20.50;48.10;19.60;101507.00;;;;5052273;28;20091;-71
2022/06/02 01:33:51;;;;;;;;;;;20.40;48.00;19.60;101515.00;;;;5043238;28;20045;-71
2022/06/02 01:37:04;;;;;;;0.22;0.22;;;20.50;48.10;19.60;101523.00;;;;5042032;28;19924;-71
2022/06/02 01:40:06;;;;;;;0.40;0.40;;;20.50;48.00;19.60;101520.00;;;;5048029;28;20025;-71
2022/06/02 01:43:05;;;;;;;1.30;1.20;;;20.50;48.00;19.60;101514.00;;;;5058448;28;20041;-71
2022/06/02 01:46:23;;;;;;;0.30;0.30;;;20.40;48.00;19.60;101516.00;;;;5038839;28;20317;-71
2022/06/02 01:49:31;;;;;;;0.60;0.32;;;20.40;48.00;19.60;101512.00;;;;5027784;28;20041;-71
2022/06/02 01:52:38;;;;;;;0.30;0.30;;;20.40;48.00;19.60;101514.00;;;;5063524;28;20617;-71
2022/06/02 01:55:42;;;;;;;0.47;0.47;;;20.40;47.90;19.60;101515.00;;;;5040034;28;20056;-71
2022/06/02 01:58:41;;;;;;;0.40;0.40;;;20.40;48.00;19.60;101517.00;;;;5042440;28;20436;-71
2022/06/02 02:01:52;;;;;;;0.40;0.40;;;20.40;48.00;19.60;101506.00;;;;5053418;28;20108;-71
2022/06/02 02:05:13;;;;;;;0.30;0.30;;;20.40;47.90;19.60;101514.00;;;;5054847;28;20041;-71
2022/06/02 02:08:25;;;;;;;0.30;0.30;;;20.40;47.90;19.50;101518.00;;;;5021002;28;20044;-71
2022/06/02 02:11:41;;;;;;;0.13;0.10;;;20.40;47.90;19.50;101517.00;;;;5041452;28;20107;-71
2022/06/02 02:15:27;;;;;;;0.20;0.20;;;20.30;47.80;19.50;101521.00;;;;5042885;28;20044;-71
2022/06/02 02:18:27;;;;;;;0.20;0.20;;;20.30;47.80;19.50;101521.00;;;;4997001;28;20047;-71
2022/06/02 02:21:28;;;;;;;0.30;0.30;;;20.30;47.80;19.50;101526.00;;;;5000059;28;20042;-71
2022/06/02 02:25:01;;;;;;;0.38;0.30;;;20.30;47.80;19.50;101528.00;;;;5040578;28;20050;-71
2022/06/02 02:28:09;;;;;;;0.45;0.20;;;20.30;48.50;19.50;101537.00;;;;5040361;28;20037;-71
2022/06/02 02:31:25;;;;;;;0.20;0.20;;;20.30;47.80;19.50;101529.00;;;;5059180;28;20067;-71
2022/06/02 02:34:45;;;;;;;0.95;0.30;;;20.30;47.80;19.50;101538.00;;;;5044401;28;20490;-71
2022/06/02 02:37:47;;;;;;;0.73;0.30;;;20.30;47.80;19.50;101539.00;;;;5049494;28;20041;-71
2022/06/02 02:40:42;;;;;;;0.25;0.25;;;20.30;47.80;19.50;101542.00;;;;5046176;28;20040;-71
2022/06/02 02:43:41;;;;;;;0.40;0.40;;;20.30;47.70;19.50;101540.00;;;;5041936;28;20047;-71
2022/06/02 02:46:48;;;;;;;0.30;0.30;;;20.30;47.70;19.50;101534.00;;;;5041056;28;20044;-71
2022/06/02 02:50:01;;;;;;;0.30;0.25;;;20.30;47.70;19.50;101534.00;;;;5051957;28;20049;-71
2022/06/02 02:52:55;;;;;;;0.50;0.40;;;20.20;47.60;19.50;101536.00;;;;5028005;28;20441;-71
2022/06/02 02:56:19;;;;;;;0.50;0.47;;;20.30;47.70;19.50;101535.00;;;;5029931;28;20052;-71
2022/06/02 02:59:52;;;;;;;0.55;0.55;;;20.30;47.70;19.50;101537.00;;;;5053751;28;20318;-71
2022/06/02 03:03:16;;;;;;;0.60;0.60;;;20.30;47.60;19.50;101548.00;;;;5018960;28;20338;-71
2022/06/02 03:06:26;;;;;;;0.50;0.50;;;20.30;47.70;19.50;101547.00;;;;5057724;28;20036;-71
2022/06/02 03:09:19;;;;;;;0.55;0.55;;;20.30;47.60;19.40;101535.00;;;;5057927;28;20506;-71
2022/06/02 03:12:14;;;;;;;0.40;0.40;;;20.30;47.70;19.40;101540.00;;;;5055696;28;20051;-71
2022/06/02 03:15:25;;;;;;;0.77;0.77;;;20.30;47.60;19.40;101549.00;;;;5038381;28;20083;-71
2022/06/02 03:18:46;;;;;;;0.60;0.60;;;20.20;47.50;19.40;101549.00;;;;5041009;28;20044;-71
2022/06/02 03:21:37;;;;;;;0.50;0.50;;;20.30;47.60;19.40;101554.00;;;;5055024;28;20086;-71
2022/06/02 03:25:15;;;;;;;0.70;0.70;;;20.20;47.50;19.40;101559.00;;;;5042305;28;20029;-71
2022/06/02 03:28:33;;;;;;;0.60;0.60;;;20.20;47.50;19.40;101558.00;;;;5016433;28;20040;-71
2022/06/02 03:31:53;;;;;;;0.68;0.68;;;20.20;47.40;19.40;101553.00;;;;5055707;28;20049;-71
2022/06/02 03:34:51;;;;;;;0.80;0.65;;;20.20;47.40;19.40;101557.00;;;;5042270;28;20406;-71
2022/06/02 03:37:55;;;;;;;0.52;0.52;;;20.20;47.40;19.40;101565.00;;;;5049822;28;20517;-71
2022/06/02 03:41:09;;;;;;;0.55;0.55;;;20.20;47.40;19.40;101569.00;;;;5055722;28;20048;-71
2022/06/02 03:44:21;;;;;;;0.65;0.50;;;20.20;47.40;19.40;101578.00;;;;5055180;28;20069;-71
2022/06/02 03:47:52;;;;;;;0.40;0.40;;;20.20;47.40;19.40;101586.00;;;;5048126;28;20524;-71
2022/06/02 03:51:32;;;;;;;0.45;0.45;;;20.20;47.30;19.40;101591.00;;;;5043557;28;20430;-71
2022/06/02 03:54:50;;;;;;;0.85;0.47;;;20.20;47.30;19.30;101586.00;;;;5034219;28;20052;-71
2022/06/02 03:58:07;;;;;;;0.40;0.40;;;20.20;47.30;19.30;101583.00;;;;5055224;28;20060;-71
2022/06/02 04:00:57;;;;;;;0.20;0.20;;;20.10;47.20;19.30;101592.00;;;;5047344;28;20036;-71
2022/06/02 04:04:03;;;;;;;0.93;0.50;;;20.10;47.20;19.30;101600.00;;;;5031323;28;20041;-71
2022/06/02 04:07:15;;;;;;;0.40;0.40;;;20.10;47.10;19.30;101590.00;;;;5054586;28;20115;-70
2022/06/02 04:10:37;;;;;;;0.40;0.40;;;20.10;47.10;19.30;101596.00;;;;5043277;28;20045;-71
2022/06/02 04:14:07;;;;;;;1.15;0.88;;;20.10;47.10;19.30;101606.00;;;;5040041;28;20057;-71
2022/06/02 04:17:21;;;;;;;0.50;0.50;;;20.10;47.10;19.30;101615.00;;;;5042458;28;20049;-71
2022/06/02 04:20:46;;;;;;;0.60;0.60;;;20.10;47.10;19.30;101612.00;;;;5051528;28;20045;-71
2022/06/02 04:23:55;;;;;;;0.75;0.70;;;20.10;47.10;19.30;101620.00;;;;5034380;28;20048;-71
2022/06/02 04:27:25;;;;;;;0.70;0.70;;;20.10;47.10;19.30;101627.00;;;;5045650;28;20037;-71
2022/06/02 04:30:33;;;;;;;1.27;0.57;;;20.10;47.10;19.30;101641.00;;;;5063308;28;20037;-70
2022/06/02 04:33:37;;;;;;;0.75;0.75;;;20.10;47.10;19.30;101642.00;;;;5061894;28;20041;-71
2022/06/02 04:37:09;;;;;;;0.70;0.70;;;20.10;47.10;19.30;101648.00;;;;5041036;28;20037;-71
2022/06/02 04:40:03;;;;;;;0.73;0.73;;;20.10;47.10;19.30;101645.00;;;;5041591;28;20120;-71
2022/06/02 04:43:26;;;;;;;0.68;0.65;;;20.10;47.10;19.30;101644.00;;;;5044611;28;20043;-71
2022/06/02 04:46:34;;;;;;;0.85;0.73;;;20.10;47.10;19.30;101651.00;;;;5037547;28;20038;-71
2022/06/02 04:49:42;;;;;;;0.73;0.70;;;20.10;47.00;19.30;101666.00;;;;5034670;28;20502;-70
2022/06/02 04:52:45;;;;;;;0.98;0.88;;;20.10;47.00;19.30;101663.00;;;;5052556;28;20045;-71
2022/06/02 04:55:51;;;;;;;1.00;0.60;;;20.10;47.00;19.30;101671.00;;;;5049331;28;20041;-71
2022/06/02 04:59:07;;;;;;;2.03;0.70;;;20.10;47.10;19.30;101664.00;;;;5051362;28;20109;-71
2022/06/02 05:02:11;;;;;;;0.68;0.68;;;20.10;47.00;19.30;101673.00;;;;5041035;28;20052;-71
2022/06/02 05:05:29;;;;;;;0.95;0.80;;;20.10;47.00;19.30;101672.00;;;;5039411;28;20119;-71
2022/06/02 05:08:40;;;;;;;0.73;0.73;;;20.10;47.00;19.30;101678.00;;;;5041364;28;20040;-71
2022/06/02 05:12:00;;;;;;;1.20;0.85;;;20.10;47.00;19.30;101674.00;;;;5055837;28;20047;-71
2022/06/02 05:15:18;;;;;;;0.60;0.60;;;20.10;47.00;19.30;101678.00;;;;5045521;28;20052;-71
2022/06/02 05:18:40;;;;;;;1.05;0.93;;;20.10;47.10;19.30;101685.00;;;;5052664;28;20051;-71
2022/06/02 05:21:44;;;;;;;1.15;0.80;;;20.10;47.10;19.30;101680.00;;;;5051764;28;20052;-71
2022/06/02 05:25:04;;;;;;;0.85;0.82;;;20.10;47.10;19.30;101692.00;;;;5030131;28;20049;-71
2022/06/02 05:28:31;;;;;;;1.08;0.98;;;20.10;47.10;19.30;101691.00;;;;5040034;28;20032;-71
2022/06/02 05:32:01;;;;;;;1.00;0.90;;;20.10;47.20;19.30;101698.00;;;;5031311;28;20089;-71
2022/06/02 05:35:32;;;;;;;1.45;1.20;;;20.20;47.30;19.30;101691.00;;;;5042488;28;20048;-71
2022/06/02 05:38:40;;;;;;;1.40;1.30;;;20.10;47.30;19.30;101686.00;;;;5033438;28;20041;-71
2022/06/02 05:41:41;;;;;;;1.90;1.40;;;20.10;47.30;19.30;101696.00;;;;5058309;28;20484;-71
2022/06/02 05:45:04;;;;;;;1.40;1.27;;;20.10;47.30;19.30;101698.00;;;;5041503;28;20030;-71
2022/06/02 05:48:05;;;;;;;2.90;1.65;;;20.20;47.40;19.30;101703.00;;;;5055230;28;20042;-71
2022/06/02 05:51:19;;;;;;;1.92;1.52;;;20.20;47.40;19.30;101713.00;;;;5043301;28;20103;-71
2022/06/02 05:54:33;;;;;;;1.65;1.30;;;20.20;47.40;19.40;101710.00;;;;5045969;28;20044;-71
2022/06/02 05:57:37;;;;;;;1.77;1.60;;;20.20;47.40;19.40;101709.00;;;;5060365;28;20044;-71
2022/06/02 06:00:31;;;;;;;1.50;1.40;;;20.20;47.40;19.40;101712.00;;;;5045065;28;20059;-71
2022/06/02 06:03:37;;;;;;;1.70;1.60;;;20.20;47.50;19.40;101721.00;;;;5042995;28;20161;-71
2022/06/02 06:06:45;;;;;;;2.50;1.80;;;20.20;47.50;19.40;101712.00;;;;5061680;28;20041;-71
2022/06/02 06:09:48;;;;;;;1.95;1.85;;;20.20;47.60;19.40;101712.00;;;;5056510;28;20056;-71
2022/06/02 06:13:01;;;;;;;2.42;2.20;;;20.30;47.50;19.40;101724.00;;;;5028356;28;20160;-71
2022/06/02 06:16:04;;;;;;;2.33;2.10;;;20.30;47.60;19.40;101722.00;;;;5049998;28;20041;-71
2022/06/02 06:19:49;;;;;;;2.33;2.13;;;20.30;47.60;19.40;101722.00;;;;5045026;28;20037;-71
2022/06/02 06:23:03;;;;;;;2.35;1.80;;;20.30;47.60;19.40;101723.00;;;;5025273;28;20037;-71
2022/06/02 06:26:09;;;;;;;2.97;1.80;;;20.30;47.60;19.40;101728.00;;;;5059693;28;20072;-71
2022/06/02 06:29:33;;;;;;;2.30;2.10;;;20.30;47.70;19.40;101724.00;;;;5050668;28;20472;-71
2022/06/02 06:32:39;;;;;;;2.45;1.60;;;20.30;47.80;19.40;101733.00;;;;5053506;28;20446;-71
2022/06/02 06:35:58;;;;;;;2.08;1.55;;;20.30;47.80;19.40;101729.00;;;;5057833;28;20029;-71
2022/06/02 06:39:31;;;;;;;3.15;2.10;;;20.30;47.80;19.40;101731.00;;;;5040987;28;20053;-71
2022/06/02 06:43:23;;;;;;;2.70;2.10;;;20.30;47.80;19.40;101720.00;;;;5034407;28;20057;-71
2022/06/02 06:46:25;;;;;;;3.20;1.90;;;20.30;47.80;19.40;101724.00;;;;5012854;28;20074;-71
2022/06/02 06:49:40;;;;;;;3.05;2.15;;;20.40;47.80;19.40;101735.00;;;;5015487;28;20045;-71
2022/06/02 06:52:47;;;;;;;3.42;2.15;;;20.30;47.90;19.40;101730.00;;;;5045947;28;20135;-71
2022/06/02 06:56:21;;;;;;;3.05;1.92;;;20.40;47.90;19.50;101718.00;;;;5049878;28;20049;-70
2022/06/02 06:59:45;;;;;;;2.38;2.13;;;20.40;47.90;19.50;101740.00;;;;5025368;28;20203;-71
2022/06/02 07:03:15;;;;;;;2.58;1.80;;;20.40;47.90;19.50;101726.00;;;;5038836;28;20124;-71
2022/06/02 07:06:21;;;;;;;2.63;2.15;;;20.40;48.00;19.50;101741.00;;;;5046301;28;20190;-71
2022/06/02 07:09:26;;;;;;;2.20;2.03;;;20.40;48.00;19.50;101743.00;;;;5043161;28;20033;-71
2022/06/02 07:15:51;;;;;;;2.20;1.90;;;20.40;48.00;19.50;101743.00;;;;5042437;28;20049;-71
2022/06/02 07:19:09;;;;;;;1.88;1.67;;;20.40;48.00;19.50;101759.00;;;;5043543;28;20052;-71
2022/06/02 07:22:16;;;;;;;2.50;1.42;;;20.40;48.00;19.50;101746.00;;;;5058789;28;20044;-71
2022/06/02 07:25:15;;;;;;;2.08;1.75;;;20.40;48.10;19.50;101755.00;;;;5046067;28;20093;-71
2022/06/02 07:28:08;;;;;;;2.30;1.98;;;20.40;48.00;19.50;101751.00;;;;5056716;28;20041;-71
2022/06/02 07:31:27;;;;;;;1.90;1.70;;;20.50;48.10;19.50;101747.00;;;;5047630;28;20076;-71
2022/06/02 07:35:22;;;;;;;2.47;1.73;;;20.50;48.10;19.50;101755.00;;;;5031498;28;20651;-71
2022/06/02 07:38:24;;;;;;;1.83;1.70;;;20.50;48.10;19.50;101760.00;;;;5055316;28;20045;-71
2022/06/02 07:41:54;;;;;;;2.58;1.60;;;20.50;48.10;19.50;101752.00;;;;5055935;28;20061;-71
2022/06/02 07:45:08;;;;;;;1.73;1.52;;;20.50;48.10;19.60;101763.00;;;;5030490;28;20083;-71
2022/06/02 07:48:03;;;;;;;1.98;1.60;;;20.50;48.00;19.60;101775.00;;;;5026688;28;20376;-71
2022/06/02 07:51:23;;;;;;;1.40;1.30;;;20.50;48.00;19.60;101768.00;;;;5046616;28;20041;-71
2022/06/02 07:54:39;;;;;;;1.83;1.40;;;20.50;48.00;19.60;101772.00;;;;5033455;28;20037;-71
2022/06/02 07:58:16;;;;;;;2.63;1.90;;;20.50;48.00;19.60;101770.00;;;;5047150;28;20063;-71
2022/06/02 08:01:11;;;;;;;3.17;1.60;;;20.50;47.90;19.60;101775.00;;;;5032331;28;20750;-72
2022/06/02 08:04:03;;;;;;;3.47;1.60;;;20.50;47.80;19.60;101775.00;;;;5039553;28;20083;-71
2022/06/02 08:06:54;;;;;;;1.15;1.05;;;20.50;47.90;19.60;101771.00;;;;5051055;28;20050;-71
2022/06/02 08:10:11;;;;;;;3.35;1.40;;;20.50;47.80;19.60;101775.00;;;;5044457;28;20522;-71
2022/06/02 08:13:27;;;;;;;1.58;1.38;;;20.50;47.80;19.60;101782.00;;;;5043925;28;20045;-71
2022/06/02 08:16:48;;;;;;;1.60;1.27;;;20.50;47.80;19.60;101786.00;;;;5055604;28;20122;-71
2022/06/02 08:19:44;;;;;;;1.23;1.13;;;20.60;47.90;19.60;101778.00;;;;5038589;28;20041;-72
2022/06/02 08:22:50;;;;;;;2.53;1.48;;;20.60;47.90;19.60;101783.00;;;;5038275;28;20049;-71
2022/06/02 08:25:57;;;;;;;1.75;1.05;;;20.60;47.80;19.60;101788.00;;;;5052103;28;20033;-71
2022/06/02 08:29:02;;;;;;;2.75;1.58;;;20.60;47.80;19.60;101785.00;;;;5054484;28;20605;-71
2022/06/02 08:32:06;;;;;;;1.13;1.00;;;20.60;47.80;19.60;101784.00;;;;5048210;28;20038;-71
2022/06/02 08:35:13;;;;;;;1.98;1.20;;;20.60;47.80;19.60;101787.00;;;;5042708;28;20050;-71
2022/06/02 08:38:55;;;;;;;1.23;1.13;;;20.60;47.80;19.60;101796.00;;;;5040700;28;20349;-71
2022/06/02 08:42:21;;;;;;;1.90;1.10;;;20.60;47.70;19.60;101797.00;;;;5043603;28;20041;-72
2022/06/02 08:45:31;;;;;;;1.50;1.10;;;20.60;47.60;19.60;101806.00;;;;5028696;28;20490;-71
2022/06/02 08:48:32;;;;;;;1.65;1.15;;;20.60;47.60;19.60;101797.00;;;;5034735;28;20041;-71
2022/06/02 08:51:24;;;;;;;2.83;1.30;;;20.60;47.60;19.60;101794.00;;;;5046319;28;20044;-71
2022/06/02 08:54:43;;;;;;;1.88;0.90;;;20.60;47.60;19.60;101790.00;;;;5037820;28;20041;-72
2022/06/02 08:58:05;;;;;;;2.60;1.42;;;20.60;47.60;19.60;101792.00;;;;5053713;28;20049;-71
2022/06/02 09:01:18;;;;;;;1.50;1.08;;;20.60;47.60;19.60;101795.00;;;;5034287;28;20547;-71
2022/06/02 09:04:42;;;;;;;1.33;1.15;;;20.60;47.50;19.60;101806.00;;;;5035491;28;20088;-71
2022/06/02 09:07:53;;;;;;;2.72;1.13;;;20.60;47.50;19.60;101803.00;;;;5036881;28;20477;-71
2022/06/02 09:11:01;;;;;;;2.42;1.02;;;20.60;47.50;19.60;101812.00;;;;5047189;28;20322;-71
2022/06/02 09:14:17;;;;;;;2.17;1.00;;;20.60;47.50;19.60;101815.00;;;;5036326;28;20047;-71
2022/06/02 09:17:07;;;;;;;2.17;1.02;;;20.60;47.50;19.60;101816.00;;;;5052245;28;20041;-71
2022/06/02 09:20:12;;;;;;;2.50;0.90;;;20.60;47.50;19.60;101820.00;;;;5043315;28;20037;-71
2022/06/02 09:23:24;;;;;;;1.20;1.10;;;20.60;47.50;19.60;101819.00;;;;5040133;28;20045;-71
2022/06/02 09:26:28;;;;;;;1.10;1.00;;;20.60;48.20;19.60;101829.00;;;;5044754;28;20048;-71
2022/06/02 09:29:41;;;;;;;1.80;0.90;;;20.60;47.40;19.60;101819.00;;;;5040217;28;20044;-71
2022/06/02 09:32:31;;;;;;;1.00;0.90;;;20.60;47.40;19.60;101821.00;;;;5046224;28;20047;-71
2022/06/02 09:35:45;;;;;;;0.82;0.80;;;20.60;47.30;19.60;101821.00;;;;5051862;28;20044;-71
2022/06/02 09:39:28;;;;;;;1.48;1.10;;;20.60;47.30;19.70;101827.00;;;;5036806;28;20582;-71
2022/06/02 09:42:57;;;;;;;1.13;0.90;;;20.60;47.40;19.70;101824.00;;;;5025748;28;20168;-71
2022/06/02 09:46:31;;;;;;;2.28;1.10;;;20.70;47.30;19.70;101827.00;;;;5047111;28;20051;-71
2022/06/02 09:49:32;;;;;;;1.25;0.75;;;20.70;48.00;19.60;101831.00;;;;5031510;28;20121;-71
2022/06/02 09:52:39;;;;;;;1.15;1.05;;;20.70;47.30;19.60;101817.00;;;;5040995;28;20072;-71
2022/06/02 09:55:53;;;;;;;0.80;0.80;;;20.70;47.20;19.70;101823.00;;;;5039456;28;20356;-73
2022/06/02 09:59:25;;;;;;;1.55;0.73;;;20.70;47.10;19.70;101825.00;;;;5031433;28;20201;-71
2022/06/02 10:02:25;;;;;;;1.65;0.88;;;20.70;47.10;19.70;101823.00;;;;5044449;28;20128;-71
2022/06/02 10:05:20;;;;;;;1.52;0.90;;;20.70;47.10;19.70;101813.00;;;;5062789;28;20116;-72
2022/06/02 10:08:48;;;;;;;2.85;1.00;;;20.70;47.10;19.70;101810.00;;;;5038651;28;20049;-71
2022/06/02 10:15:46;;;;;;;2.05;0.93;;;20.70;47.00;19.60;101819.00;;;;5029413;28;20052;-72
2022/06/02 10:18:55;;;;;;;1.65;0.82;;;20.70;47.00;19.60;101816.00;;;;5052334;28;20160;-71
2022/06/02 10:22:12;;;;;;;2.22;0.60;;;20.70;46.90;19.70;101809.00;;;;5055825;28;20124;-71
2022/06/02 10:25:07;;;;;;;1.00;0.55;;;20.70;46.90;19.70;101811.00;;;;5039554;28;20033;-71
2022/06/02 10:28:25;;;;;;;0.75;0.68;;;20.70;46.90;19.70;101815.00;;;;5027631;28;20395;-71
2022/06/02 10:32:07;;;;;;;1.05;0.60;;;20.70;46.80;19.70;101810.00;;;;5052691;28;20055;-71
2022/06/02 10:35:33;;;;;;;1.10;0.63;;;20.70;46.70;19.70;101812.00;;;;5044915;28;20569;-72
2022/06/02 10:38:26;;;;;;;1.08;0.50;;;20.70;46.70;19.70;101805.00;;;;5043400;28;20084;-72
2022/06/02 10:41:31;;;;;;;0.70;0.70;;;20.80;46.80;19.70;101808.00;;;;5060464;28;20040;-72
2022/06/02 10:44:56;;;;;;;0.75;0.70;;;20.80;46.80;19.70;101806.00;;;;5056658;28;20067;-74
2022/06/02 10:48:28;;;;;;;0.93;0.60;;;20.80;46.70;19.70;101809.00;;;;5033296;28;20063;-74
2022/06/02 10:51:36;;;;;;;0.57;0.50;;;20.70;46.60;19.70;101806.00;;;;5047574;28;20095;-74
2022/06/02 10:54:40;;;;;;;2.22;0.60;;;20.80;46.60;19.70;101804.00;;;;5041117;28;20048;-74
2022/06/02 10:57:55;;;;;;;1.58;0.60;;;20.80;46.60;19.70;101807.00;;;;5041616;28;20044;-74
2022/06/02 11:01:34;;;;;;;0.88;0.68;;;20.80;46.60;19.80;101809.00;;;;5072218;28;20052;-73
2022/06/02 11:05:06;;;;;;;1.50;0.95;;;20.80;46.60;19.80;101796.00;;;;5035860;28;20051;-73
2022/06/02 11:08:01;;;;;;;0.90;0.80;;;20.80;46.50;19.70;101815.00;;;;5043714;28;20128;-74
2022/06/02 11:11:11;;;;;;;0.52;0.50;;;20.80;46.60;19.80;101804.00;;;;5047826;28;20448;-70
2022/06/02 11:14:12;;;;;;;1.65;0.63;;;20.80;46.50;19.80;101806.00;;;;5029883;28;20048;-71
2022/06/02 11:17:34;;;;;;;1.00;0.68;;;20.80;46.50;19.80;101799.00;;;;5043532;28;20040;-70
2022/06/02 11:21:02;;;;;;;0.70;0.60;;;20.80;46.50;19.80;101798.00;;;;5059316;28;20490;-71
2022/06/02 11:24:54;;;;;;;1.15;0.70;;;20.90;46.50;19.80;101794.00;;;;5053332;28;20074;-70
2022/06/02 11:28:27;;;;;;;1.02;0.65;;;20.90;46.40;19.80;101788.00;;;;5032069;28;20092;-70
2022/06/02 11:31:31;;;;;;;0.73;0.70;;;20.90;46.40;19.80;101784.00;;;;5049986;28;20053;-71
2022/06/02 11:35:03;;;;;;;1.35;0.50;;;20.90;46.40;19.80;101786.00;;;;5044166;28;20587;-73
2022/06/02 11:38:14;;;;;;;0.80;0.57;;;20.90;46.40;19.80;101786.00;;;;5044213;28;20044;-72
2022/06/02 11:41:45;;;;;;;1.38;0.50;;;20.90;46.40;19.80;101784.00;;;;5054844;28;20115;-72
2022/06/02 11:44:59;;;;;;;1.25;0.50;;;20.90;46.40;19.80;101786.00;;;;5030806;28;20045;-73
2022/06/02 11:48:20;;;;;;;1.13;0.60;;;20.90;46.30;19.80;101777.00;;;;5042076;28;20037;-73
2022/06/02 11:52:01;;;;;;;0.40;0.40;;;21.00;46.30;19.80;101782.00;;;;5028361;28;20172;-73
2022/06/02 11:54:58;;;;;;;1.02;0.45;;;21.00;47.00;19.80;101778.00;;;;5019608;28;20912;-72
2022/06/02 11:58:08;;;;;;;0.73;0.50;;;21.00;46.10;19.80;101767.00;;;;5027315;28;20072;-72
2022/06/02 12:01:15;;;;;;;1.30;0.40;;;21.00;46.20;19.80;101778.00;;;;5020950;28;20049;-72
2022/06/02 12:04:29;;;;;;;1.92;0.70;;;21.00;46.20;19.80;101775.00;;;;5035353;28;20078;-73
2022/06/02 12:07:54;;;;;;;1.52;0.63;;;21.00;46.10;19.90;101774.00;;;;5046397;28;20053;-72
2022/06/02 12:11:19;;;;;;;0.40;0.40;;;21.00;46.10;19.90;101776.00;;;;5030343;28;20040;-73
2022/06/02 12:14:22;;;;;;;0.50;0.50;;;21.00;46.10;19.90;101778.00;;;;5043805;28;20090;-73
2022/06/02 12:17:27;;;;;;;0.43;0.43;;;21.00;46.00;19.90;101775.00;;;;5026177;28;20041;-72
2022/06/02 12:20:39;;;;;;;1.10;0.47;;;21.00;46.10;19.90;101773.00;;;;5042944;28;20108;-73
2022/06/02 12:23:53;;;;;;;0.77;0.60;;;21.00;46.00;19.90;101770.00;;;;5046352;28;20048;-73
2022/06/02 12:27:15;;;;;;;0.60;0.60;;;21.00;46.00;19.90;101771.00;;;;5042101;28;20632;-72
2022/06/02 12:30:47;;;;;;;0.70;0.52;;;21.00;45.90;19.90;101768.00;;;;5048592;28;20029;-72
2022/06/02 12:34:21;;;;;;;1.13;0.75;;;20.80;45.80;19.90;101766.00;;;;5043498;28;20387;-73
2022/06/02 12:38:08;;;;;;;0.80;0.70;;;21.00;45.90;19.90;101768.00;;;;5050115;28;20047;-73
2022/06/02 12:41:11;;;;;;;0.93;0.40;;;21.00;45.90;19.90;101758.00;;;;5030485;28;20413;-72
2022/06/02 12:44:20;;;;;;;3.20;0.68;;;21.00;45.80;19.90;101766.00;;;;5040770;28;20064;-72
2022/06/02 12:47:25;;;;;;;1.55;0.60;;;21.00;45.80;19.90;101757.00;;;;5053285;28;20047;-69
2022/06/02 12:50:40;;;;;;;0.50;0.50;;;21.10;45.90;19.90;101756.00;;;;5043478;28;20405;-70
2022/06/02 12:53:50;;;;;;;0.55;0.52;;;21.00;45.80;19.90;101753.00;;;;5040527;28;20052;-71
2022/06/02 12:57:28;;;;;;;0.77;0.68;;;21.10;45.80;19.90;101760.00;;;;5049163;28;20047;-70
2022/06/02 13:00:37;;;;;;;0.88;0.50;;;21.10;45.80;19.90;101754.00;;;;5032441;28;20076;-70
2022/06/02 13:04:28;;;;;;;0.80;0.60;;;21.10;45.80;19.90;101753.00;;;;5025338;28;20041;-73
2022/06/02 13:07:53;;;;;;;1.67;0.75;;;21.10;45.90;19.90;101753.00;;;;5031822;28;20040;-70
2022/06/02 13:11:09;;;;;;;0.60;0.60;;;21.10;45.80;19.90;101756.00;;;;5047590;28;20540;-70
2022/06/02 13:14:21;;;;;;;0.65;0.52;;;21.10;45.80;20.00;101753.00;;;;5054640;28;20116;-70
2022/06/02 13:17:47;;;;;;;1.27;0.60;;;21.10;45.80;19.90;101745.00;;;;5025911;28;20041;-70
2022/06/02 13:20:59;;;;;;;0.85;0.68;;;21.10;45.70;20.00;101742.00;;;;5041336;28;20517;-70
2022/06/02 13:24:26;;;;;;;1.55;0.43;;;21.10;45.70;20.00;101749.00;;;;5029225;28;20197;-70
2022/06/02 13:27:38;;;;;;;1.25;0.60;;;21.10;45.70;20.00;101746.00;;;;5037446;28;20379;-70
2022/06/02 13:30:54;;;;;;;0.73;0.60;;;21.20;45.80;20.00;101752.00;;;;5043470;28;20049;-71
2022/06/02 13:33:48;;;;;;;0.70;0.60;;;21.20;45.80;20.00;101760.00;;;;5039385;28;20040;-71
2022/06/02 13:36:56;;;;;;;0.80;0.73;;;21.20;45.60;20.00;101754.00;;;;5055715;28;20045;-71
2022/06/02 13:40:14;;;;;;;1.10;0.50;;;21.20;45.60;20.00;101747.00;;;;5035861;28;20655;-71
2022/06/02 13:43:55;;;;;;;0.82;0.52;;;21.20;45.60;20.00;101757.00;;;;5041635;28;20108;-71
2022/06/02 13:47:23;;;;;;;1.58;0.50;;;21.20;45.60;20.00;101752.00;;;;5019923;28;20112;-71
2022/06/02 13:50:46;;;;;;;1.50;0.60;;;21.30;45.60;20.00;101750.00;;;;5060136;28;20048;-71
2022/06/02 13:57:42;;;;;;;3.50;0.70;;;21.30;45.40;20.00;101740.00;;;;5034610;28;20055;-71
2022/06/02 14:01:01;;;;;;;2.35;0.52;;;21.30;45.50;20.10;101734.00;;;;5035441;28;20045;-71
2022/06/02 14:04:21;;;;;;;0.85;0.60;;;21.30;45.50;20.10;101740.00;;;;5030732;28;20044;-71
2022/06/02 14:07:57;;;;;;;0.50;0.50;;;21.30;45.50;20.10;101735.00;;;;5013971;28;20040;-70
2022/06/02 14:11:04;;;;;;;0.95;0.63;;;21.30;45.40;20.10;101741.00;;;;5038048;28;20145;-70
2022/06/02 14:14:18;;;;;;;1.02;0.60;;;21.30;45.50;20.10;101731.00;;;;5046581;28;20036;-70
2022/06/02 14:17:45;;;;;;;0.73;0.57;;;21.30;45.40;20.10;101733.00;;;;5047167;28;20429;-70
2022/06/02 14:20:37;;;;;;;0.50;0.40;;;21.30;45.40;20.10;101728.00;;;;5055517;28;20095;-70
2022/06/02 14:23:29;;;;;;;1.33;0.73;;;21.40;45.40;20.10;101730.00;;;;5056383;28;20041;-70